createdAt,value
2022-08-11T00:01:16.903Z,10.32
2022-08-11T00:04:04.873Z,6.22
2022-08-11T00:06:35.264Z,7.32
2022-08-11T00:09:05.252Z,6.50
2022-08-11T00:11:37.120Z,8.23
2022-08-11T00:14:13.441Z,7.57
2022-08-11T00:16:41.909Z,6.80
2022-08-11T00:19:09.585Z,6.40
2022-08-11T00:22:04.299Z,12.27
2022-08-11T00:24:53.508Z,6.68
2022-08-11T00:27:31.806Z,8.43
2022-08-11T00:29:58.750Z,8.80
2022-08-11T00:32:26.762Z,8.00
2022-08-11T00:35:51.761Z,11.20
2022-08-11T00:37:50.359Z,7.28
2022-08-11T00:40:28.337Z,7.50
2022-08-11T00:43:22.523Z,5.70
2022-08-11T00:46:10.644Z,9.40
2022-08-11T00:48:50.360Z,7.32
2022-08-11T00:52:04.760Z,11.30
2022-08-11T00:55:07.399Z,8.00
2022-08-11T00:58:13.033Z,8.03
2022-08-11T01:01:11.629Z,9.43
2022-08-11T01:04:09.854Z,10.17
2022-08-11T01:06:45.434Z,8.93
2022-08-11T01:09:33.602Z,9.50
2022-08-11T01:12:28.309Z,9.40
2022-08-11T01:15:00.734Z,9.27
2022-08-11T01:17:46.334Z,9.60
2022-08-11T01:20:44.865Z,10.40
2022-08-11T01:23:47.734Z,9.53
2022-08-11T01:27:00.254Z,9.37
2022-08-11T01:29:55.041Z,11.03
2022-08-11T01:32:40.234Z,8.57
2022-08-11T01:35:34.916Z,9.73
2022-08-11T01:38:34.423Z,10.17
2022-08-11T01:41:13.088Z,8.00
2022-08-11T01:44:27.925Z,9.80
2022-08-11T01:47:52.505Z,9.17
2022-08-11T01:50:54.127Z,7.93
2022-08-11T01:53:36.605Z,9.23
2022-08-11T01:56:24.984Z,12.43
2022-08-11T01:59:10.489Z,9.40
2022-08-11T02:01:40.909Z,8.90
2022-08-11T02:04:31.931Z,9.87
2022-08-11T02:07:21.267Z,11.30
2022-08-11T02:10:38.660Z,9.10
2022-08-11T02:13:41.547Z,11.50
2022-08-11T02:16:33.641Z,9.27
2022-08-11T02:19:42.689Z,10.00
2022-08-11T02:22:55.844Z,10.83
2022-08-11T02:25:46.366Z,10.20
2022-08-11T02:28:28.919Z,11.27
2022-08-11T02:32:24.276Z,9.50
2022-08-11T02:34:40.277Z,9.73
2022-08-11T02:37:24.405Z,10.93
2022-08-11T02:40:06.118Z,11.97
2022-08-11T02:42:50.532Z,9.93
2022-08-11T02:45:35.989Z,10.50
2022-08-11T02:49:12.905Z,13.73
2022-08-11T02:51:52.389Z,8.80
2022-08-11T02:54:37.973Z,12.77
2022-08-11T02:57:13.164Z,10.13
2022-08-11T03:00:07.455Z,9.60
2022-08-11T03:03:05.771Z,12.20
2022-08-11T03:06:10.875Z,13.07
2022-08-11T03:09:03.176Z,11.97
2022-08-11T03:12:11.038Z,14.17
2022-08-11T03:15:11.561Z,13.67
2022-08-11T03:18:06.384Z,10.47
2022-08-11T03:20:45.268Z,11.33
2022-08-11T03:23:26.616Z,11.80
2022-08-11T03:26:19.522Z,11.07
2022-08-11T03:29:01.912Z,11.37
2022-08-11T03:31:34.140Z,11.20
2022-08-11T03:34:09.157Z,11.83
2022-08-11T03:36:55.760Z,11.47
2022-08-11T03:40:15.794Z,11.20
2022-08-11T03:42:44.117Z,9.93
2022-08-11T03:45:26.481Z,10.43
2022-08-11T03:48:18.230Z,11.23
2022-08-11T03:50:59.133Z,13.97
2022-08-11T03:54:03.667Z,11.97
2022-08-11T03:57:03.296Z,13.13
2022-08-11T03:59:56.515Z,14.70
2022-08-11T04:02:55.495Z,13.20
2022-08-11T04:06:11.885Z,12.53
2022-08-11T04:08:59.962Z,13.87
2022-08-11T04:11:54.947Z,13.37
2022-08-11T04:15:07.789Z,15.77
2022-08-11T04:18:01.501Z,13.03
2022-08-11T04:20:51.785Z,12.27
2022-08-11T04:24:36.439Z,13.13
2022-08-11T04:26:47.964Z,13.67
2022-08-11T04:30:03.083Z,14.00
2022-08-11T04:32:49.375Z,14.37
2022-08-11T04:35:50.184Z,14.77
2022-08-11T04:38:37.694Z,13.50
2022-08-11T04:41:28.047Z,14.07
2022-08-11T04:44:31.788Z,11.47
2022-08-11T04:48:01.428Z,14.10
2022-08-11T04:51:16.403Z,14.90
2022-08-11T04:54:28.254Z,14.70
2022-08-11T04:57:19.596Z,15.27
2022-08-11T05:00:30.420Z,14.47
2022-08-11T05:03:35.555Z,11.17
2022-08-11T05:06:29.929Z,13.10
2022-08-11T05:09:31.778Z,14.77
2022-08-11T05:12:42.477Z,16.50
2022-08-11T05:15:55.358Z,13.60
2022-08-11T05:18:43.048Z,13.07
2022-08-11T05:21:44.296Z,14.07
2022-08-11T05:24:39.737Z,17.13
2022-08-11T05:27:27.907Z,18.03
2022-08-11T05:30:23.157Z,16.77
2022-08-11T05:33:29.312Z,15.30
2022-08-11T05:36:05.661Z,14.77
2022-08-11T05:38:53.681Z,14.17
2022-08-11T05:41:45.868Z,12.60
2022-08-11T05:44:37.768Z,18.57
2022-08-11T05:47:23.815Z,16.63
2022-08-11T05:50:13.804Z,14.90
2022-08-11T05:53:04.645Z,13.80
2022-08-11T05:56:02.441Z,14.90
2022-08-11T05:58:42.582Z,14.23
2022-08-11T06:01:22.939Z,14.33
2022-08-11T06:04:11.267Z,17.97
2022-08-11T06:06:45.173Z,15.03
2022-08-11T06:09:14.445Z,13.48
2022-08-11T06:11:45.011Z,12.85
2022-08-11T06:14:13.104Z,10.45
2022-08-11T06:16:42.822Z,9.75
2022-08-11T06:19:11.138Z,12.75
2022-08-11T06:21:38.466Z,10.75
2022-08-11T06:24:11.886Z,8.43
2022-08-11T06:27:08.747Z,7.97
2022-08-11T06:29:37.999Z,9.70
2022-08-11T06:32:16.196Z,8.52
2022-08-11T06:35:07.616Z,9.48
2022-08-11T06:37:50.052Z,7.43
2022-08-11T06:40:33.320Z,9.88
2022-08-11T06:43:18.022Z,7.65
2022-08-11T06:46:11.988Z,8.38
2022-08-11T06:48:55.919Z,7.47
2022-08-11T06:51:23.952Z,8.68
2022-08-11T06:54:04.501Z,9.35
2022-08-11T07:00:03.683Z,8.90
2022-08-11T07:02:49.263Z,9.40
2022-08-11T07:05:37.096Z,8.23
2022-08-11T07:08:56.166Z,7.15
2022-08-11T07:12:04.790Z,7.00
2022-08-11T07:14:51.477Z,8.27
2022-08-11T07:17:23.075Z,10.70
2022-08-11T07:20:18.412Z,6.95
2022-08-11T07:23:13.263Z,7.70
2022-08-11T07:26:01.209Z,8.00
2022-08-11T07:28:49.294Z,7.10
2022-08-11T07:31:36.022Z,6.82
2022-08-11T07:34:18.523Z,7.63
2022-08-11T07:36:59.440Z,8.85
2022-08-11T07:39:29.213Z,7.57
2022-08-11T07:41:58.628Z,7.88
2022-08-11T07:44:34.371Z,6.40
2022-08-11T07:47:21.311Z,7.70
2022-08-11T07:50:09.126Z,7.95
2022-08-11T07:52:38.083Z,5.30
2022-08-11T07:55:17.308Z,6.25
2022-08-11T07:58:16.839Z,5.65
2022-08-11T08:01:22.038Z,7.28
2022-08-11T08:04:09.417Z,7.32
2022-08-11T08:06:56.529Z,6.70
2022-08-11T08:09:43.695Z,4.93
2022-08-11T08:12:31.175Z,4.90
2022-08-11T08:15:17.183Z,5.78
2022-08-11T08:18:09.217Z,6.90
2022-08-11T08:20:50.051Z,4.03
2022-08-11T08:23:33.313Z,4.70
2022-08-11T08:26:30.431Z,7.25
2022-08-11T08:29:20.813Z,9.80
2022-08-11T08:31:49.470Z,5.50
2022-08-11T08:34:17.704Z,7.03
2022-08-11T08:36:50.360Z,6.72
2022-08-11T08:39:21.837Z,5.43
2022-08-11T08:41:59.292Z,5.65
2022-08-11T08:44:38.388Z,4.50
2022-08-11T08:47:10.524Z,4.60
2022-08-11T08:52:19.470Z,6.47
2022-08-11T08:52:43.593Z,5.85
2022-08-11T08:55:17.126Z,6.43
2022-08-11T08:57:45.591Z,6.45
2022-08-11T09:00:19.374Z,5.30
2022-08-11T09:02:49.603Z,4.20
2022-08-11T09:05:19.230Z,6.35
2022-08-11T09:07:51.077Z,4.57
2022-08-11T09:10:19.962Z,3.78
2022-08-11T09:12:48.273Z,5.63
2022-08-11T09:15:19.441Z,5.32
2022-08-11T09:18:01.413Z,3.80
2022-08-11T09:20:34.232Z,5.07
2022-08-11T09:24:08.387Z,3.70
2022-08-11T09:26:33.901Z,3.28
2022-08-11T09:29:01.681Z,6.38
2022-08-11T09:31:37.224Z,4.97
2022-08-11T09:34:06.979Z,3.95
2022-08-11T09:36:53.611Z,3.95
2022-08-11T09:39:38.992Z,4.57
2022-08-11T09:42:06.681Z,3.17
2022-08-11T09:59:47.665Z,4.20
2022-08-11T10:02:15.984Z,9.60
2022-08-11T10:04:46.587Z,5.10
2022-08-11T10:07:19.103Z,4.25
2022-08-11T10:09:51.483Z,5.03
2022-08-11T10:12:29.618Z,4.40
2022-08-11T10:15:20.803Z,4.43
2022-08-11T10:18:11.068Z,4.07
2022-08-11T10:20:39.194Z,5.10
2022-08-11T10:23:27.058Z,4.32
2022-08-11T10:26:12.610Z,5.15
2022-08-11T10:29:02.108Z,4.25
2022-08-11T10:31:57.163Z,4.38
2022-08-11T10:34:29.114Z,5.35
2022-08-11T10:36:58.375Z,3.80
2022-08-11T10:39:27.296Z,5.38
2022-08-11T10:42:22.387Z,3.20
2022-08-11T10:44:58.825Z,2.42
2022-08-11T10:47:35.187Z,3.50
2022-08-11T10:50:30.525Z,2.55
2022-08-11T10:53:18.150Z,4.93
2022-08-11T10:56:05.700Z,3.78
2022-08-11T10:58:45.469Z,4.63
2022-08-11T11:01:14.568Z,4.03
2022-08-11T11:03:43.019Z,6.45
2022-08-11T11:06:28.430Z,5.22
2022-08-11T11:09:05.235Z,4.40
2022-08-11T11:11:57.850Z,2.80
2022-08-11T11:14:49.771Z,6.75
2022-08-11T11:18:01.701Z,2.33
2022-08-11T11:20:42.652Z,4.28
2022-08-11T11:23:33.398Z,2.92
2022-08-11T11:26:34.277Z,4.13
2022-08-11T11:29:25.291Z,5.30
2022-08-11T11:32:30.295Z,4.82
2022-08-11T11:35:15.730Z,4.40
2022-08-11T11:38:00.949Z,2.90
2022-08-11T11:40:33.585Z,4.50
2022-08-11T11:43:01.457Z,2.50
2022-08-11T11:45:29.105Z,3.40
2022-08-11T11:47:59.473Z,3.83
2022-08-11T11:50:33.131Z,5.28
2022-08-11T11:53:01.943Z,3.88
2022-08-11T11:55:30.362Z,3.92
2022-08-11T11:58:19.104Z,3.30
2022-08-11T12:01:06.044Z,5.20
2022-08-11T12:03:34.501Z,4.95
2022-08-11T12:06:02.621Z,2.30
2022-08-11T12:08:30.491Z,3.85
2022-08-11T12:11:21.877Z,2.85
2022-08-11T12:13:53.661Z,3.70
2022-08-11T12:16:34.770Z,4.60
2022-08-11T12:19:10.491Z,3.30
2022-08-11T12:21:38.577Z,2.92
2022-08-11T12:24:28.452Z,3.05
2022-08-11T12:27:17.684Z,3.05
2022-08-11T12:29:55.138Z,3.55
2022-08-11T12:32:26.053Z,3.63
2022-08-11T12:34:53.805Z,3.22
2022-08-11T12:37:24.484Z,3.13
2022-08-11T12:40:42.822Z,2.30
2022-08-11T12:43:37.753Z,2.65
2022-08-11T12:46:12.586Z,5.30
2022-08-11T12:49:07.808Z,4.55
2022-08-11T12:52:11.977Z,2.13
2022-08-11T12:55:02.801Z,5.05
2022-08-11T12:57:56.056Z,2.20
2022-08-11T13:00:43.161Z,4.45
2022-08-11T13:03:30.716Z,2.70
2022-08-11T13:06:00.832Z,2.95
2022-08-11T13:08:30.568Z,3.05
2022-08-11T13:11:18.468Z,3.08
2022-08-11T13:13:53.699Z,5.93
2022-08-11T13:16:54.460Z,2.40
2022-08-11T13:19:23.111Z,3.45
2022-08-11T13:21:52.126Z,5.25
2022-08-11T13:24:20.164Z,2.20
2022-08-11T13:26:50.304Z,4.35
2022-08-11T13:29:20.032Z,3.63
2022-08-11T13:31:48.187Z,2.72
2022-08-11T13:34:20.635Z,3.42
2022-08-11T13:36:52.171Z,3.88
2022-08-11T13:39:20.674Z,2.85
2022-08-11T13:41:49.334Z,5.68
2022-08-11T13:44:23.144Z,4.03
2022-08-11T13:46:52.824Z,3.05
2022-08-11T13:49:21.900Z,2.92
2022-08-11T13:51:49.141Z,3.60
2022-08-11T13:54:30.974Z,4.00
2022-08-11T13:57:02.077Z,2.10
2022-08-11T13:59:31.215Z,2.42
2022-08-11T14:02:28.621Z,4.03
2022-08-11T14:04:58.929Z,3.33
2022-08-11T14:07:34.445Z,3.25
2022-08-11T14:10:02.546Z,4.53
2022-08-11T14:12:52.983Z,6.43
2022-08-11T14:15:27.656Z,4.30
2022-08-11T14:18:09.215Z,3.35
2022-08-11T14:20:58.453Z,2.33
2022-08-11T14:23:41.239Z,3.97
2022-08-11T14:26:28.100Z,2.78
2022-08-11T14:29:00.177Z,5.43
2022-08-11T14:31:29.424Z,3.88
2022-08-11T14:33:59.915Z,3.83
2022-08-11T14:36:59.843Z,7.03
2022-08-11T14:39:29.041Z,3.70
2022-08-11T14:42:17.930Z,29.13
2022-08-11T14:45:02.983Z,2.42
2022-08-11T14:47:33.661Z,4.07
2022-08-11T14:50:11.027Z,3.95
2022-08-11T14:52:45.776Z,3.25
2022-08-11T14:55:32.549Z,1.92
2022-08-11T14:58:00.540Z,3.28
2022-08-11T15:00:27.994Z,4.32
2022-08-11T15:03:11.923Z,2.67
2022-08-11T15:05:56.399Z,5.20
2022-08-11T15:08:46.445Z,2.33
2022-08-11T15:11:33.141Z,2.55
2022-08-11T15:14:02.763Z,5.03
2022-08-11T15:16:48.335Z,2.33
2022-08-11T15:19:15.888Z,4.38
2022-08-11T15:22:01.590Z,3.70
2022-08-11T15:24:30.921Z,2.97
2022-08-11T15:27:19.447Z,3.83
2022-08-11T15:30:06.893Z,5.07
2022-08-11T15:32:54.540Z,2.13
2022-08-11T15:35:39.949Z,2.50
2022-08-11T15:38:11.630Z,2.13
2022-08-11T15:41:00.193Z,3.05
2022-08-11T15:44:14.193Z,2.63
2022-08-11T15:46:45.712Z,1.80
2022-08-11T15:49:23.704Z,2.75
2022-08-11T15:52:03.935Z,2.65
2022-08-11T15:54:33.687Z,3.00
2022-08-11T15:57:02.211Z,3.10
2022-08-11T15:59:52.356Z,4.07
2022-08-11T16:02:28.087Z,2.00
2022-08-11T16:04:56.770Z,3.92
2022-08-11T16:07:27.341Z,2.05
2022-08-11T16:10:07.541Z,5.40
2022-08-11T16:13:21.747Z,2.60
2022-08-11T16:16:13.888Z,5.78
2022-08-11T16:18:52.135Z,3.92
2022-08-11T16:21:34.946Z,4.10
2022-08-11T16:24:06.438Z,3.30
2022-08-11T16:27:10.604Z,2.80
2022-08-11T16:29:25.416Z,2.00
2022-08-11T16:32:13.388Z,2.30
2022-08-11T16:34:59.680Z,6.20
2022-08-11T16:37:45.897Z,3.47
2022-08-11T16:40:13.567Z,4.13
2022-08-11T16:43:10.480Z,4.70
2022-08-11T16:46:12.617Z,3.05
2022-08-11T16:48:43.101Z,4.30
2022-08-11T16:51:12.942Z,3.00
2022-08-11T16:54:03.593Z,4.13
2022-08-11T16:56:38.722Z,5.07
2022-08-11T16:59:17.353Z,2.55
2022-08-11T17:01:59.287Z,2.92
2022-08-11T17:04:57.105Z,3.25
2022-08-11T17:07:44.853Z,3.85
2022-08-11T17:10:56.678Z,2.78
2022-08-11T17:13:33.648Z,3.47
2022-08-11T17:16:10.172Z,4.43
2022-08-11T17:18:45.698Z,4.10
2022-08-11T17:21:18.037Z,3.45
2022-08-11T17:23:50.600Z,3.60
2022-08-11T17:26:21.018Z,2.92
2022-08-11T17:28:52.954Z,2.80
2022-08-11T17:31:40.226Z,2.42
2022-08-11T17:34:31.640Z,4.60
2022-08-11T17:37:00.215Z,3.08
2022-08-11T17:39:30.711Z,4.43
2022-08-11T17:42:18.365Z,3.08
2022-08-11T17:45:05.798Z,2.33
2022-08-11T17:47:53.086Z,4.85
2022-08-11T17:50:21.435Z,4.22
2022-08-11T17:53:07.460Z,4.65
2022-08-11T17:55:54.390Z,4.30
2022-08-11T17:58:40.318Z,4.38
2022-08-11T18:01:09.239Z,4.20
2022-08-11T18:03:39.876Z,3.50
2022-08-11T18:06:12.562Z,4.43
2022-08-11T18:09:03.122Z,2.75
2022-08-11T18:12:10.763Z,3.75
2022-08-11T18:14:58.844Z,4.03
2022-08-11T18:17:44.071Z,2.60
2022-08-11T18:20:29.578Z,3.40
2022-08-11T18:23:16.794Z,2.80
2022-08-11T18:26:07.130Z,2.58
2022-08-11T18:29:03.623Z,3.40
2022-08-11T18:31:53.060Z,2.00
2022-08-11T18:34:45.774Z,3.10
2022-08-11T18:37:45.093Z,4.30
2022-08-11T18:40:35.996Z,3.05
2022-08-11T18:43:27.389Z,2.70
2022-08-11T18:46:19.456Z,4.55
2022-08-11T18:49:15.304Z,2.25
2022-08-11T18:52:06.418Z,3.05
2022-08-11T18:54:55.224Z,2.53
2022-08-11T18:57:49.894Z,4.43
2022-08-11T19:00:45.150Z,4.15
2022-08-11T19:03:32.850Z,4.13
2022-08-11T19:06:38.978Z,3.28
2022-08-11T19:09:30.676Z,6.07
2022-08-11T19:12:18.942Z,3.67
2022-08-11T19:15:06.406Z,3.15
2022-08-11T19:17:54.306Z,3.55
2022-08-11T19:20:43.238Z,3.28
2022-08-11T19:23:30.767Z,6.07
2022-08-11T19:26:18.616Z,3.78
2022-08-11T19:29:06.494Z,4.57
2022-08-11T19:31:52.899Z,3.55
2022-08-11T19:34:41.605Z,5.80
2022-08-11T19:37:28.259Z,4.00
2022-08-11T19:40:18.277Z,6.68
2022-08-11T19:43:04.592Z,4.30
2022-08-11T19:46:11.706Z,5.38
2022-08-11T19:48:57.396Z,4.13
2022-08-11T19:51:43.244Z,3.00
2022-08-11T19:54:29.252Z,5.53
2022-08-11T19:57:15.709Z,6.05
2022-08-11T20:00:02.192Z,6.75
2022-08-11T20:02:48.325Z,5.45
2022-08-11T20:05:33.584Z,5.78
2022-08-11T20:08:19.533Z,4.78
2022-08-11T20:11:06.714Z,6.97
2022-08-11T20:13:53.791Z,6.65
2022-08-11T20:16:40.591Z,5.70
2022-08-11T20:19:55.481Z,6.07
2022-08-11T20:22:35.084Z,5.60
2022-08-11T20:25:22.469Z,5.38
2022-08-11T20:28:08.736Z,4.72
2022-08-11T20:30:55.054Z,5.65
2022-08-11T20:33:42.477Z,6.30
2022-08-11T20:36:30.755Z,5.60
2022-08-11T20:39:18.688Z,6.57
2022-08-11T20:42:06.233Z,7.18
2022-08-11T20:44:52.994Z,5.68
2022-08-11T20:47:59.755Z,5.30
2022-08-11T20:50:46.792Z,3.22
2022-08-11T20:53:35.632Z,4.80
2022-08-11T20:56:28.734Z,6.72
2022-08-11T20:59:18.139Z,4.35
2022-08-11T21:02:09.502Z,7.78
2022-08-11T21:04:56.842Z,5.38
2022-08-11T21:07:56.653Z,5.68
2022-08-11T21:10:46.915Z,3.72
2022-08-11T21:13:36.958Z,3.00
2022-08-11T21:16:26.248Z,4.53
2022-08-11T21:19:59.984Z,4.93
2022-08-11T21:22:35.677Z,5.88
2022-08-11T21:25:25.466Z,8.48
2022-08-11T21:28:11.909Z,4.60
2022-08-11T21:30:58.363Z,6.25
2022-08-11T21:33:47.084Z,5.75
2022-08-11T21:36:34.057Z,7.55
2022-08-11T21:39:24.769Z,6.57
2022-08-11T21:42:13.188Z,7.65
2022-08-11T21:45:00.906Z,7.03
2022-08-11T21:47:48.427Z,3.70
2022-08-11T21:50:33.937Z,6.55
2022-08-11T21:53:19.902Z,8.30
2022-08-11T21:56:06.007Z,4.88
2022-08-11T21:58:52.051Z,3.70
2022-08-11T22:01:37.842Z,6.05
2022-08-11T22:04:24.351Z,4.30
2022-08-11T22:07:09.985Z,4.55
2022-08-11T22:09:56.248Z,7.25
2022-08-11T22:12:44.937Z,4.65
2022-08-11T22:15:31.249Z,4.75
2022-08-11T22:18:17.062Z,5.78
2022-08-11T22:21:03.442Z,4.45
2022-08-11T22:23:53.832Z,7.63
2022-08-11T22:26:41.267Z,6.78
2022-08-11T22:29:49.949Z,9.65
2022-08-11T22:32:35.777Z,3.85
2022-08-11T22:35:22.815Z,4.25
2022-08-11T22:38:08.479Z,7.70
2022-08-11T22:40:54.593Z,7.35
2022-08-11T22:43:40.103Z,7.13
2022-08-11T22:46:25.658Z,7.20
2022-08-11T22:49:12.479Z,6.25
2022-08-11T22:52:01.439Z,5.18
2022-08-11T22:54:48.200Z,6.10
2022-08-11T22:57:34.929Z,5.50
2022-08-11T23:00:20.492Z,6.28
2022-08-11T23:03:06.624Z,5.28
2022-08-11T23:05:56.925Z,5.28
2022-08-11T23:08:42.967Z,5.63
2022-08-11T23:11:28.663Z,7.28
2022-08-11T23:14:34.344Z,7.90
2022-08-11T23:17:19.993Z,8.43
2022-08-11T23:20:23.072Z,6.28
2022-08-11T23:23:11.796Z,10.82
2022-08-11T23:25:59.292Z,5.45
2022-08-11T23:28:46.642Z,4.93
2022-08-11T23:31:50.496Z,6.38
2022-08-11T23:35:03.514Z,5.60
2022-08-11T23:38:03.681Z,8.23
2022-08-11T23:40:49.164Z,7.53
2022-08-11T23:43:42.361Z,7.65
2022-08-11T23:46:28.706Z,7.10
2022-08-11T23:49:21.533Z,7.80
2022-08-11T23:52:08.444Z,6.65
2022-08-11T23:54:54.539Z,8.23
2022-08-11T23:57:47.729Z,10.27
